createdAt,value
2018-03-26T00:00:19.125Z,98.30
2018-03-26T00:02:47.353Z,107.87
2018-03-26T00:05:14.809Z,102.43
2018-03-26T00:07:42.282Z,99.30
2018-03-26T00:10:09.776Z,104.70
2018-03-26T00:12:38.031Z,114.50
2018-03-26T00:15:05.505Z,91.47
2018-03-26T00:17:32.981Z,90.50
2018-03-26T00:20:01.209Z,100.10
2018-03-26T00:22:28.670Z,89.90
2018-03-26T00:24:56.149Z,98.37
2018-03-26T00:27:23.616Z,95.63
2018-03-26T00:29:51.064Z,89.60
2018-03-26T00:32:18.540Z,94.40
2018-03-26T00:34:46.773Z,105.47
2018-03-26T00:37:14.251Z,108.90
2018-03-26T00:39:41.727Z,94.93
2018-03-26T00:42:09.977Z,107.03
2018-03-26T00:44:37.431Z,106.03
2018-03-26T00:47:04.901Z,99.53
2018-03-26T00:49:32.388Z,105.87
2018-03-26T00:52:00.608Z,119.13
2018-03-26T00:54:28.092Z,119.53
2018-03-26T00:56:55.608Z,103.87
2018-03-26T00:59:23.036Z,102.60
2018-03-26T01:01:51.285Z,115.07
2018-03-26T01:04:18.741Z,101.23
2018-03-26T01:06:46.228Z,114.00
2018-03-26T01:09:13.686Z,111.43
2018-03-26T01:11:41.166Z,98.13
2018-03-26T01:14:08.654Z,105.33
2018-03-26T01:16:36.111Z,125.20
2018-03-26T01:19:03.564Z,106.43
2018-03-26T01:21:31.050Z,102.13
2018-03-26T01:23:58.537Z,100.70
2018-03-26T01:26:26.778Z,94.37
2018-03-26T01:28:54.245Z,107.03
2018-03-26T01:31:21.724Z,106.27
2018-03-26T01:33:49.961Z,90.17
2018-03-26T01:36:18.184Z,95.23
2018-03-26T01:38:45.662Z,94.83
2018-03-26T01:41:13.121Z,103.20
2018-03-26T01:43:40.601Z,94.03
2018-03-26T01:46:08.089Z,94.10
2018-03-26T01:48:35.546Z,95.97
2018-03-26T01:51:03.032Z,98.73
2018-03-26T01:53:31.257Z,105.67
2018-03-26T01:55:58.720Z,96.17
2018-03-26T01:58:26.209Z,111.77
2018-03-26T02:00:53.693Z,96.93
2018-03-26T02:03:21.929Z,110.30
2018-03-26T02:05:49.410Z,105.93
2018-03-26T02:08:17.720Z,116.23
2018-03-26T02:10:45.192Z,112.60
2018-03-26T02:13:12.673Z,109.70
2018-03-26T02:15:40.133Z,118.93
2018-03-26T02:18:07.617Z,118.90
2018-03-26T02:20:35.097Z,113.40
2018-03-26T02:23:02.575Z,96.80
2018-03-26T02:25:30.041Z,107.13
2018-03-26T02:27:57.521Z,126.33
2018-03-26T02:30:25.053Z,155.60
2018-03-26T02:32:52.669Z,99.73
2018-03-26T02:35:20.148Z,124.43
2018-03-26T02:37:48.364Z,113.63
2018-03-26T02:40:15.846Z,121.13
2018-03-26T02:42:43.317Z,154.60
2018-03-26T02:45:10.801Z,116.73
2018-03-26T02:47:39.033Z,180.43
2018-03-26T02:50:06.504Z,405.60
2018-03-26T02:52:33.986Z,163.27
2018-03-26T02:55:02.229Z,373.73
2018-03-26T02:57:29.710Z,570.23
2018-03-26T02:59:57.588Z,146.87
2018-03-26T03:02:26.046Z,264.07
2018-03-26T03:04:53.811Z,214.23
2018-03-26T03:07:21.680Z,343.67
2018-03-26T03:09:49.463Z,264.60
2018-03-26T03:12:19.621Z,86.10
2018-03-26T03:14:47.347Z,118.83
2018-03-26T03:17:14.822Z,93.00
2018-03-26T03:19:42.316Z,252.93
2018-03-26T03:22:09.776Z,332.20
2018-03-26T03:24:37.269Z,442.37
2018-03-26T03:27:04.724Z,544.63
2018-03-26T03:29:32.191Z,142.73
2018-03-26T03:32:00.444Z,376.00
2018-03-26T03:34:27.904Z,422.47
2018-03-26T03:36:55.395Z,312.13
2018-03-26T03:39:23.634Z,300.13
2018-03-26T03:41:51.118Z,128.63
2018-03-26T03:44:18.573Z,276.97
2018-03-26T03:46:46.052Z,413.17
2018-03-26T03:49:14.346Z,122.87
2018-03-26T03:51:41.808Z,228.40
2018-03-26T03:54:09.309Z,260.57
2018-03-26T03:56:36.764Z,214.07
2018-03-26T03:59:04.218Z,381.87
2018-03-26T04:01:31.693Z,235.57
2018-03-26T04:03:59.148Z,412.63
2018-03-26T04:06:26.610Z,538.33
2018-03-26T04:08:54.090Z,470.80
2018-03-26T04:11:21.540Z,309.27
2018-03-26T04:13:49.021Z,701.00
2018-03-26T04:16:16.501Z,435.87
2018-03-26T04:18:43.989Z,278.27
2018-03-26T04:21:11.474Z,331.60
2018-03-26T04:23:38.951Z,394.73
2018-03-26T04:26:07.182Z,407.93
2018-03-26T04:28:34.665Z,453.33
2018-03-26T04:31:02.133Z,328.07
2018-03-26T04:33:30.384Z,312.40
2018-03-26T04:35:57.885Z,229.87
2018-03-26T04:38:25.365Z,312.63
2018-03-26T04:40:52.823Z,441.97
2018-03-26T04:43:20.306Z,226.13
2018-03-26T04:45:47.777Z,353.47
2018-03-26T04:48:15.274Z,293.93
2018-03-26T04:50:42.759Z,534.90
2018-03-26T04:53:10.212Z,125.57
2018-03-26T04:55:37.689Z,217.23
2018-03-26T04:58:05.180Z,323.50
2018-03-26T05:00:32.649Z,446.80
2018-03-26T05:03:00.113Z,436.20
2018-03-26T05:05:28.365Z,257.60
2018-03-26T05:07:55.856Z,366.20
2018-03-26T05:10:23.316Z,356.50
2018-03-26T05:12:50.780Z,108.20
2018-03-26T05:15:18.265Z,181.07
2018-03-26T05:17:45.722Z,375.77
2018-03-26T05:20:13.206Z,297.10
2018-03-26T05:22:40.672Z,336.80
2018-03-26T05:25:08.149Z,266.57
2018-03-26T05:27:35.628Z,154.20
2018-03-26T05:30:03.094Z,352.27
2018-03-26T05:32:30.560Z,381.83
2018-03-26T05:34:58.067Z,406.03
2018-03-26T05:37:25.537Z,340.60
2018-03-26T05:39:53.767Z,222.70
2018-03-26T05:42:21.357Z,129.90
2018-03-26T05:44:48.818Z,155.70
2018-03-26T05:47:17.569Z,207.50
2018-03-26T05:49:45.249Z,230.00
2018-03-26T05:52:12.841Z,266.77
2018-03-26T05:54:40.250Z,259.37
2018-03-26T05:57:07.752Z,360.83
2018-03-26T05:59:35.205Z,246.13
2018-03-26T06:02:03.514Z,442.50
2018-03-26T06:04:30.953Z,302.80
2018-03-26T06:06:59.208Z,212.70
2018-03-26T06:09:26.762Z,263.10
2018-03-26T06:11:54.280Z,197.20
2018-03-26T06:14:21.966Z,102.30
2018-03-26T06:17:01.248Z,209.70
2018-03-26T06:19:29.552Z,228.07
2018-03-26T06:21:57.041Z,56.03
2018-03-26T06:24:24.560Z,86.00
2018-03-26T06:26:51.989Z,78.63
2018-03-26T06:29:19.470Z,234.13
2018-03-26T06:31:46.965Z,73.23
2018-03-26T06:34:14.424Z,141.47
2018-03-26T06:36:46.816Z,129.80
2018-03-26T06:39:14.269Z,61.20
2018-03-26T06:41:41.724Z,202.07
2018-03-26T06:44:09.241Z,171.80
2018-03-26T06:46:36.675Z,332.30
2018-03-26T06:49:04.176Z,110.77
2018-03-26T06:51:31.631Z,268.43
2018-03-26T06:53:59.093Z,41.30
2018-03-26T06:56:26.576Z,78.50
2018-03-26T06:58:54.044Z,45.90
2018-03-26T07:01:21.501Z,214.23
2018-03-26T07:03:48.980Z,86.23
2018-03-26T07:06:16.444Z,114.50
2018-03-26T07:08:43.905Z,68.67
2018-03-26T07:11:11.386Z,70.97
2018-03-26T07:13:38.839Z,58.63
2018-03-26T07:16:06.297Z,103.23
2018-03-26T07:18:33.877Z,29.37
2018-03-26T07:21:01.325Z,82.27
2018-03-26T07:23:28.797Z,226.07
2018-03-26T07:25:56.281Z,115.70
2018-03-26T07:28:23.761Z,78.53
2018-03-26T07:30:51.233Z,115.47
2018-03-26T07:33:18.718Z,91.90
2018-03-26T07:35:46.178Z,48.00
2018-03-26T07:38:13.654Z,58.73
2018-03-26T07:40:41.113Z,67.53
2018-03-26T07:43:08.606Z,131.07
2018-03-26T07:45:36.102Z,43.70
2018-03-26T07:48:03.560Z,53.03
2018-03-26T07:50:31.015Z,47.57
2018-03-26T07:52:58.492Z,48.33
2018-03-26T07:55:25.948Z,75.70
2018-03-26T07:57:53.418Z,33.87
2018-03-26T08:00:20.978Z,38.33
2018-03-26T08:02:48.434Z,31.37
2018-03-26T08:05:15.905Z,20.83
2018-03-26T08:07:44.132Z,50.00
2018-03-26T08:10:11.710Z,26.50
2018-03-26T08:12:39.166Z,33.47
2018-03-26T08:15:06.642Z,80.90
2018-03-26T08:17:34.105Z,46.63
2018-03-26T08:20:01.580Z,41.57
2018-03-26T08:22:29.037Z,30.07
2018-03-26T08:24:56.517Z,24.93
2018-03-26T08:27:23.975Z,30.40
2018-03-26T08:29:51.462Z,24.30
2018-03-26T08:32:18.938Z,45.50
2018-03-26T08:34:46.405Z,41.53
2018-03-26T08:37:13.917Z,39.57
2018-03-26T08:39:41.402Z,40.57
2018-03-26T08:42:08.865Z,24.70
2018-03-26T08:44:36.353Z,34.63
2018-03-26T08:47:03.824Z,37.20
2018-03-26T08:49:31.316Z,41.57
2018-03-26T08:51:58.797Z,38.03
2018-03-26T08:54:26.277Z,23.53
2018-03-26T08:56:53.765Z,36.70
2018-03-26T08:59:21.227Z,44.30
2018-03-26T09:01:48.685Z,31.30
2018-03-26T09:04:16.169Z,33.33
2018-03-26T09:06:44.407Z,26.17
2018-03-26T09:09:11.928Z,25.83
2018-03-26T09:11:39.401Z,25.67
2018-03-26T09:14:06.867Z,30.87
2018-03-26T09:16:34.342Z,23.20
2018-03-26T09:19:01.845Z,31.60
2018-03-26T09:21:29.303Z,17.67
2018-03-26T09:23:56.760Z,13.43
2018-03-26T09:26:24.249Z,15.40
2018-03-26T09:28:51.709Z,20.23
2018-03-26T09:31:19.165Z,22.73
2018-03-26T09:33:46.642Z,23.93
2018-03-26T09:36:14.113Z,26.40
2018-03-26T09:38:41.633Z,16.83
2018-03-26T09:41:09.083Z,21.33
2018-03-26T09:43:37.465Z,14.83
2018-03-26T09:46:04.964Z,25.67
2018-03-26T09:48:32.424Z,17.80
2018-03-26T09:50:59.885Z,13.07
2018-03-26T09:53:27.394Z,14.30
2018-03-26T09:55:54.791Z,21.67
2018-03-26T09:58:22.266Z,17.10
2018-03-26T10:00:49.737Z,22.30
2018-03-26T10:03:25.952Z,20.23
2018-03-26T10:05:53.477Z,28.70
2018-03-26T10:08:21.754Z,15.77
2018-03-26T10:10:49.977Z,19.23
2018-03-26T10:13:17.438Z,21.80
2018-03-26T10:15:44.909Z,22.27
2018-03-26T10:18:12.369Z,27.50
2018-03-26T10:20:39.841Z,23.20
2018-03-26T10:23:07.290Z,16.43
2018-03-26T10:25:34.773Z,24.13
2018-03-26T10:28:02.988Z,33.60
2018-03-26T10:30:30.470Z,25.30
2018-03-26T10:32:57.929Z,28.70
2018-03-26T10:35:25.389Z,37.47
2018-03-26T10:37:52.881Z,31.97
2018-03-26T10:40:21.097Z,31.60
2018-03-26T10:42:48.585Z,33.70
2018-03-26T10:45:16.099Z,31.87
2018-03-26T10:47:43.513Z,29.70
2018-03-26T10:50:11.034Z,31.47
2018-03-26T10:52:38.498Z,33.40
2018-03-26T10:55:05.992Z,28.43
2018-03-26T10:57:33.488Z,30.77
2018-03-26T11:00:00.976Z,25.10
2018-03-26T11:02:28.450Z,25.47
2018-03-26T11:04:55.932Z,23.30
2018-03-26T11:07:23.403Z,32.80
2018-03-26T11:09:50.861Z,23.33
2018-03-26T11:12:18.355Z,24.03
2018-03-26T11:14:45.810Z,26.10
2018-03-26T11:17:13.286Z,18.97
2018-03-26T11:19:40.812Z,25.20
2018-03-26T11:22:09.029Z,18.20
2018-03-26T11:24:36.510Z,18.00
2018-03-26T11:27:03.957Z,9.73
2018-03-26T11:29:31.439Z,24.70
2018-03-26T11:31:58.884Z,36.83
2018-03-26T11:34:26.465Z,18.87
2018-03-26T11:36:53.922Z,17.57
2018-03-26T11:39:21.414Z,15.73
2018-03-26T11:41:48.882Z,13.73
2018-03-26T11:44:16.316Z,16.67
2018-03-26T11:46:43.787Z,22.67
2018-03-26T11:49:11.311Z,15.90
2018-03-26T11:51:38.772Z,19.67
2018-03-26T11:54:06.260Z,14.50
2018-03-26T11:56:33.709Z,19.93
2018-03-26T11:59:01.929Z,18.33
2018-03-26T12:01:30.174Z,13.93
2018-03-26T12:03:57.635Z,12.70
2018-03-26T12:06:25.113Z,10.13
2018-03-26T12:08:52.583Z,12.77
2018-03-26T12:11:20.048Z,9.93
2018-03-26T12:13:47.512Z,11.63
2018-03-26T12:16:14.969Z,9.43
2018-03-26T12:18:42.481Z,10.90
2018-03-26T12:21:09.970Z,17.30
2018-03-26T12:23:49.320Z,13.40
2018-03-26T12:26:16.813Z,8.53
2018-03-26T12:28:56.125Z,8.30
2018-03-26T12:31:23.608Z,9.90
2018-03-26T12:34:02.985Z,12.50
2018-03-26T12:36:30.446Z,6.73
2018-03-26T12:38:57.925Z,22.30
2018-03-26T12:41:25.388Z,10.33
2018-03-26T12:43:52.905Z,14.00
2018-03-26T12:46:32.309Z,12.50
2018-03-26T12:48:59.761Z,12.50
2018-03-26T12:54:26.212Z,15.53
2018-03-26T12:57:05.484Z,11.90
2018-03-26T12:59:32.970Z,9.40
2018-03-26T13:02:12.281Z,6.37
2018-03-26T13:04:39.771Z,8.83
2018-03-26T13:07:07.221Z,5.77
2018-03-26T13:09:35.483Z,5.90
2018-03-26T13:12:02.953Z,6.03
2018-03-26T13:14:30.417Z,7.27
2018-03-26T13:16:57.908Z,6.70
2018-03-26T13:19:25.361Z,9.17
2018-03-26T13:21:52.827Z,13.23
2018-03-26T13:24:20.305Z,10.10
2018-03-26T13:26:48.521Z,6.97
2018-03-26T13:29:15.997Z,6.80
2018-03-26T13:31:43.451Z,9.33
2018-03-26T13:34:10.946Z,5.17
2018-03-26T13:36:39.178Z,10.40
2018-03-26T13:39:06.687Z,12.17
2018-03-26T13:41:34.938Z,14.83
2018-03-26T13:44:02.413Z,10.10
2018-03-26T13:46:30.653Z,13.53
2018-03-26T13:48:58.113Z,9.37
2018-03-26T13:51:25.581Z,10.00
2018-03-26T13:53:53.060Z,8.83
2018-03-26T13:56:21.285Z,5.60
2018-03-26T13:58:48.733Z,6.07
2018-03-26T14:01:16.205Z,8.93
2018-03-26T14:03:43.653Z,6.77
2018-03-26T14:06:11.134Z,7.07
2018-03-26T14:08:50.281Z,4.73
2018-03-26T14:11:29.656Z,7.60
2018-03-26T14:14:08.948Z,8.23
2018-03-26T14:16:48.332Z,6.03
2018-03-26T14:19:15.814Z,6.43
2018-03-26T14:21:43.330Z,5.97
2018-03-26T14:24:11.594Z,5.57
2018-03-26T14:26:39.072Z,4.20
2018-03-26T14:29:07.374Z,4.97
2018-03-26T14:31:34.895Z,6.10
2018-03-26T14:34:02.293Z,7.50
2018-03-26T14:36:29.767Z,7.77
2018-03-26T14:38:57.311Z,5.20
2018-03-26T14:41:24.757Z,5.60
2018-03-26T14:43:52.253Z,7.47
2018-03-26T14:46:19.705Z,5.03
2018-03-26T14:48:47.185Z,5.10
2018-03-26T14:51:14.630Z,5.67
2018-03-26T14:53:42.090Z,6.50
2018-03-26T14:56:09.572Z,9.00
2018-03-26T14:58:37.064Z,6.10
2018-03-26T15:01:04.541Z,4.77
2018-03-26T15:03:32.024Z,6.13
2018-03-26T15:05:59.493Z,8.47
2018-03-26T15:08:26.972Z,14.70
2018-03-26T15:10:54.489Z,9.53
2018-03-26T15:13:22.803Z,7.20
2018-03-26T15:15:50.285Z,6.00
2018-03-26T15:18:18.510Z,10.13
2018-03-26T15:20:45.996Z,10.80
2018-03-26T15:23:13.474Z,15.40
2018-03-26T15:25:41.727Z,11.33
2018-03-26T15:28:09.198Z,17.83
2018-03-26T15:30:37.441Z,10.57
2018-03-26T15:33:04.913Z,9.43
2018-03-26T15:35:32.400Z,11.40
2018-03-26T15:38:00.653Z,8.87
2018-03-26T15:40:28.106Z,10.67
2018-03-26T15:42:55.555Z,9.87
2018-03-26T15:45:23.086Z,15.90
2018-03-26T15:47:50.541Z,13.23
2018-03-26T15:50:18.101Z,11.80
2018-03-26T15:52:45.554Z,15.70
2018-03-26T15:55:13.039Z,21.20
2018-03-26T15:57:40.489Z,12.67
2018-03-26T16:00:07.995Z,8.17
2018-03-26T16:02:41.207Z,12.37
2018-03-26T16:05:08.673Z,12.63
2018-03-26T16:07:36.120Z,13.80
2018-03-26T16:10:03.628Z,17.70
2018-03-26T16:12:31.088Z,15.23
2018-03-26T16:14:58.594Z,12.10
2018-03-26T16:17:26.827Z,14.50
2018-03-26T16:19:54.388Z,12.80
2018-03-26T16:22:21.861Z,16.27
2018-03-26T16:24:49.336Z,10.80
2018-03-26T16:27:16.818Z,17.47
2018-03-26T16:29:44.272Z,15.33
2018-03-26T16:32:11.916Z,14.53
2018-03-26T16:34:39.593Z,10.67
2018-03-26T16:37:07.092Z,8.80
2018-03-26T16:39:34.609Z,11.60
2018-03-26T16:45:01.843Z,14.27
2018-03-26T16:47:29.478Z,12.13
2018-03-26T16:49:56.973Z,12.90
2018-03-26T16:52:24.421Z,13.93
2018-03-26T16:54:52.212Z,13.90
2018-03-26T16:57:19.717Z,15.47
2018-03-26T16:59:47.195Z,12.13
2018-03-26T17:02:15.492Z,15.00
2018-03-26T17:04:43.238Z,13.43
2018-03-26T17:07:10.960Z,14.23
2018-03-26T17:09:38.548Z,11.67
2018-03-26T17:12:06.235Z,12.63
2018-03-26T17:14:34.479Z,16.13
2018-03-26T17:17:02.361Z,20.60
2018-03-26T17:19:29.999Z,17.07
2018-03-26T17:21:57.686Z,15.87
2018-03-26T17:24:25.148Z,17.97
2018-03-26T17:26:52.706Z,10.23
2018-03-26T17:29:20.390Z,16.80
2018-03-26T17:31:47.883Z,18.27
2018-03-26T17:34:16.302Z,16.40
2018-03-26T17:36:43.992Z,10.53
2018-03-26T17:39:11.564Z,12.50
2018-03-26T17:41:39.041Z,12.80
2018-03-26T17:44:07.277Z,9.37
2018-03-26T17:46:34.740Z,17.63
2018-03-26T17:49:02.262Z,11.90
2018-03-26T17:51:29.729Z,13.67
2018-03-26T17:53:57.193Z,13.50
2018-03-26T17:56:24.680Z,15.90
2018-03-26T17:58:52.178Z,14.83
2018-03-26T18:01:19.633Z,14.70
2018-03-26T18:03:47.109Z,18.83
2018-03-26T18:06:14.573Z,26.07
2018-03-26T18:08:42.114Z,14.90
2018-03-26T18:11:09.573Z,15.17
2018-03-26T18:13:37.545Z,14.63
2018-03-26T18:16:05.000Z,12.40
2018-03-26T18:18:32.485Z,15.00
2018-03-26T18:20:59.948Z,15.50
2018-03-26T18:23:29.170Z,17.80
2018-03-26T18:25:56.652Z,20.00
2018-03-26T18:28:24.476Z,20.37
2018-03-26T18:30:52.776Z,18.57
2018-03-26T18:33:20.566Z,16.90
2018-03-26T18:35:48.838Z,16.50
2018-03-26T18:38:17.146Z,15.13
2018-03-26T18:40:44.644Z,18.07
2018-03-26T18:43:12.147Z,16.90
2018-03-26T18:45:39.615Z,17.20
2018-03-26T18:48:07.060Z,16.37
2018-03-26T18:50:35.320Z,17.53
2018-03-26T18:53:02.848Z,17.67
2018-03-26T18:55:30.322Z,19.50
2018-03-26T18:57:57.766Z,27.27
2018-03-26T19:00:25.272Z,22.70
2018-03-26T19:02:53.528Z,21.00
2018-03-26T19:05:20.992Z,22.23
2018-03-26T19:07:49.208Z,19.70
2018-03-26T19:10:16.686Z,18.23
2018-03-26T19:12:44.136Z,22.53
2018-03-26T19:15:11.612Z,17.00
2018-03-26T19:17:39.144Z,15.80
2018-03-26T19:20:06.642Z,15.40
2018-03-26T19:22:34.275Z,16.07
2018-03-26T19:25:01.751Z,15.17
2018-03-26T19:27:29.272Z,18.23
2018-03-26T19:29:56.848Z,20.80
2018-03-26T19:32:24.319Z,20.43
2018-03-26T19:34:51.798Z,15.47
2018-03-26T19:37:19.273Z,17.37
2018-03-26T19:39:46.740Z,18.70
2018-03-26T19:42:14.239Z,16.93
2018-03-26T19:44:42.546Z,17.70
2018-03-26T19:47:10.092Z,18.00
2018-03-26T19:49:37.778Z,21.17
2018-03-26T19:52:05.286Z,24.97
2018-03-26T19:54:32.831Z,25.37
2018-03-26T19:57:00.296Z,21.70
2018-03-26T19:59:28.017Z,19.57
2018-03-26T20:01:55.619Z,20.07
2018-03-26T20:04:23.124Z,23.33
2018-03-26T20:06:50.736Z,22.43
2018-03-26T20:09:19.044Z,20.00
2018-03-26T20:11:46.557Z,19.77
2018-03-26T20:14:14.257Z,17.80
2018-03-26T20:16:41.951Z,20.37
2018-03-26T20:19:09.460Z,23.60
2018-03-26T20:21:36.971Z,22.77
2018-03-26T20:24:04.475Z,23.60
2018-03-26T20:26:31.946Z,25.40
2018-03-26T20:28:59.418Z,18.73
2018-03-26T20:31:26.882Z,21.50
2018-03-26T20:33:54.361Z,23.97
2018-03-26T20:36:21.842Z,28.17
2018-03-26T20:38:49.290Z,28.17
2018-03-26T20:41:16.763Z,27.53
2018-03-26T20:43:44.218Z,27.77
2018-03-26T20:46:11.684Z,25.10
2018-03-26T20:48:39.153Z,23.57
2018-03-26T20:51:07.388Z,23.63
2018-03-26T20:53:34.846Z,24.33
2018-03-26T20:56:02.321Z,26.07
2018-03-26T20:58:29.896Z,24.87
2018-03-26T21:00:58.149Z,26.27
2018-03-26T21:03:25.609Z,25.40
2018-03-26T21:05:53.080Z,22.20
2018-03-26T21:08:21.109Z,23.23
2018-03-26T21:10:48.584Z,19.70
2018-03-26T21:13:16.060Z,25.13
2018-03-26T21:15:43.520Z,28.43
2018-03-26T21:18:11.005Z,23.47
2018-03-26T21:20:39.223Z,25.20
2018-03-26T21:23:06.715Z,26.43
2018-03-26T21:25:34.155Z,31.47
2018-03-26T21:28:01.609Z,27.20
2018-03-26T21:30:29.085Z,28.77
2018-03-26T21:32:56.543Z,27.03
2018-03-26T21:35:24.033Z,33.70
2018-03-26T21:37:52.241Z,27.40
2018-03-26T21:40:19.708Z,28.97
2018-03-26T21:42:47.153Z,28.00
2018-03-26T21:45:14.633Z,33.83
2018-03-26T21:47:42.155Z,28.50
2018-03-26T21:50:09.602Z,25.70
2018-03-26T21:52:37.084Z,29.60
2018-03-26T21:55:04.569Z,29.50
2018-03-26T21:57:32.023Z,32.30
2018-03-26T21:59:59.464Z,29.40
2018-03-26T22:02:26.936Z,30.47
2018-03-26T22:04:54.408Z,28.80
2018-03-26T22:07:21.860Z,31.20
2018-03-26T22:09:49.323Z,30.63
2018-03-26T22:12:16.809Z,39.43
2018-03-26T22:14:44.281Z,35.77
2018-03-26T22:17:11.734Z,33.43
2018-03-26T22:19:39.992Z,32.80
2018-03-26T22:22:07.448Z,32.23
2018-03-26T22:24:34.898Z,27.30
2018-03-26T22:27:02.377Z,36.73
2018-03-26T22:29:29.849Z,31.77
2018-03-26T22:31:57.301Z,31.00
2018-03-26T22:34:25.558Z,36.43
2018-03-26T22:36:53.021Z,35.10
2018-03-26T22:39:20.473Z,32.97
2018-03-26T22:41:47.962Z,31.40
2018-03-26T22:44:15.413Z,36.57
2018-03-26T22:46:42.893Z,31.13
2018-03-26T22:49:10.409Z,33.90
2018-03-26T22:51:37.881Z,32.60
2018-03-26T22:54:06.113Z,32.23
2018-03-26T22:56:33.590Z,39.93
2018-03-26T22:59:01.074Z,33.20
2018-03-26T23:01:29.292Z,38.10
2018-03-26T23:03:56.757Z,38.90
2018-03-26T23:06:24.220Z,33.33
2018-03-26T23:08:51.704Z,35.77
2018-03-26T23:11:19.169Z,34.97
2018-03-26T23:13:46.656Z,38.30
2018-03-26T23:16:14.105Z,37.20
2018-03-26T23:18:41.625Z,36.47
2018-03-26T23:21:09.136Z,40.13
2018-03-26T23:23:36.603Z,37.33
2018-03-26T23:26:04.052Z,33.33
2018-03-26T23:28:31.541Z,39.37
2018-03-26T23:30:58.997Z,40.80
2018-03-26T23:33:26.452Z,41.87
2018-03-26T23:35:54.700Z,40.23
2018-03-26T23:38:22.185Z,41.50
2018-03-26T23:40:49.657Z,40.33
2018-03-26T23:43:17.892Z,38.67
2018-03-26T23:45:45.373Z,42.17
2018-03-26T23:48:12.884Z,47.00
2018-03-26T23:50:41.133Z,54.10
2018-03-26T23:53:08.618Z,50.43
2018-03-26T23:55:36.836Z,51.70
2018-03-26T23:58:04.320Z,43.17
